sensor_id;sensor_type;location;lat;lon;timestamp;pressure;altitude;pressure_sealevel;temperature;humidity
57412;BME280;43247;52.828;-8.980;2023-04-06T00:00:42;101483.12;;;10.39;80.20
57412;BME280;43247;52.828;-8.980;2023-04-06T00:01:42;101482.11;;;10.38;80.26
57412;BME280;43247;52.828;-8.980;2023-04-06T00:02:42;101481.21;;;10.38;80.29
57412;BME280;43247;52.828;-8.980;2023-04-06T00:03:42;101481.10;;;10.38;80.48
57412;BME280;43247;52.828;-8.980;2023-04-06T00:04:42;101479.07;;;10.38;80.46
57412;BME280;43247;52.828;-8.980;2023-04-06T00:05:43;101477.55;;;10.37;80.39
57412;BME280;43247;52.828;-8.980;2023-04-06T00:06:43;101476.68;;;10.37;80.36
57412;BME280;43247;52.828;-8.980;2023-04-06T00:07:43;101477.44;;;10.36;80.45
57412;BME280;43247;52.828;-8.980;2023-04-06T00:08:44;101477.29;;;10.36;80.53
57412;BME280;43247;52.828;-8.980;2023-04-06T00:09:44;101476.30;;;10.36;80.50
57412;BME280;43247;52.828;-8.980;2023-04-06T00:10:44;101475.51;;;10.35;80.57
57412;BME280;43247;52.828;-8.980;2023-04-06T00:11:44;101473.92;;;10.35;80.51
57412;BME280;43247;52.828;-8.980;2023-04-06T00:12:44;101472.23;;;10.35;80.73
57412;BME280;43247;52.828;-8.980;2023-04-06T00:13:44;101472.38;;;10.35;80.64
57412;BME280;43247;52.828;-8.980;2023-04-06T00:14:45;101471.87;;;10.35;80.55
57412;BME280;43247;52.828;-8.980;2023-04-06T00:15:45;101469.90;;;10.34;80.60
57412;BME280;43247;52.828;-8.980;2023-04-06T00:16:45;101468.71;;;10.33;80.56
57412;BME280;43247;52.828;-8.980;2023-04-06T00:17:45;101468.96;;;10.33;80.60
57412;BME280;43247;52.828;-8.980;2023-04-06T00:18:45;101466.47;;;10.33;80.71
57412;BME280;43247;52.828;-8.980;2023-04-06T00:19:45;101466.84;;;10.32;80.87
57412;BME280;43247;52.828;-8.980;2023-04-06T00:20:46;101466.50;;;10.32;80.87
57412;BME280;43247;52.828;-8.980;2023-04-06T00:21:46;101462.53;;;10.32;80.88
57412;BME280;43247;52.828;-8.980;2023-04-06T00:22:46;101461.70;;;10.31;80.78
57412;BME280;43247;52.828;-8.980;2023-04-06T00:23:46;101461.25;;;10.31;80.81
57412;BME280;43247;52.828;-8.980;2023-04-06T00:24:46;101461.32;;;10.31;80.82
57412;BME280;43247;52.828;-8.980;2023-04-06T00:25:46;101459.80;;;10.31;80.98
57412;BME280;43247;52.828;-8.980;2023-04-06T00:26:47;101457.95;;;10.31;80.88
57412;BME280;43247;52.828;-8.980;2023-04-06T00:27:47;101456.04;;;10.31;80.93
57412;BME280;43247;52.828;-8.980;2023-04-06T00:28:48;101456.40;;;10.30;81.04
57412;BME280;43247;52.828;-8.980;2023-04-06T00:29:48;101459.51;;;10.30;81.08
57412;BME280;43247;52.828;-8.980;2023-04-06T00:30:48;101458.76;;;10.30;81.05
57412;BME280;43247;52.828;-8.980;2023-04-06T00:31:48;101458.86;;;10.30;81.08
57412;BME280;43247;52.828;-8.980;2023-04-06T00:32:48;101458.64;;;10.30;80.96
57412;BME280;43247;52.828;-8.980;2023-04-06T00:33:48;101457.06;;;10.29;81.03
57412;BME280;43247;52.828;-8.980;2023-04-06T00:34:49;101456.53;;;10.29;81.14
57412;BME280;43247;52.828;-8.980;2023-04-06T00:35:49;101456.94;;;10.29;81.13
57412;BME280;43247;52.828;-8.980;2023-04-06T00:36:49;101455.06;;;10.28;81.21
57412;BME280;43247;52.828;-8.980;2023-04-06T00:37:49;101455.10;;;10.28;81.24
57412;BME280;43247;52.828;-8.980;2023-04-06T00:38:49;101455.11;;;10.28;81.27
57412;BME280;43247;52.828;-8.980;2023-04-06T00:39:49;101455.25;;;10.27;81.28
57412;BME280;43247;52.828;-8.980;2023-04-06T00:40:50;101452.16;;;10.27;81.27
57412;BME280;43247;52.828;-8.980;2023-04-06T00:41:51;101451.59;;;10.27;81.32
57412;BME280;43247;52.828;-8.980;2023-04-06T00:42:50;101447.71;;;10.26;81.28
57412;BME280;43247;52.828;-8.980;2023-04-06T00:43:51;101447.42;;;10.26;81.30
57412;BME280;43247;52.828;-8.980;2023-04-06T00:44:51;101450.46;;;10.26;81.41
57412;BME280;43247;52.828;-8.980;2023-04-06T00:45:51;101452.07;;;10.26;81.47
57412;BME280;43247;52.828;-8.980;2023-04-06T00:46:51;101451.01;;;10.26;81.46
57412;BME280;43247;52.828;-8.980;2023-04-06T00:47:51;101451.80;;;10.26;81.44
57412;BME280;43247;52.828;-8.980;2023-04-06T00:48:51;101449.52;;;10.25;81.58
57412;BME280;43247;52.828;-8.980;2023-04-06T00:49:52;101446.39;;;10.25;81.54
57412;BME280;43247;52.828;-8.980;2023-04-06T00:50:51;101445.68;;;10.24;81.52
57412;BME280;43247;52.828;-8.980;2023-04-06T00:51:52;101445.54;;;10.24;81.63
57412;BME280;43247;52.828;-8.980;2023-04-06T00:52:52;101444.62;;;10.24;81.70
57412;BME280;43247;52.828;-8.980;2023-04-06T00:53:52;101441.66;;;10.23;81.63
57412;BME280;43247;52.828;-8.980;2023-04-06T00:54:52;101439.64;;;10.23;81.63
57412;BME280;43247;52.828;-8.980;2023-04-06T00:55:52;101437.21;;;10.23;81.65
57412;BME280;43247;52.828;-8.980;2023-04-06T00:56:53;101436.87;;;10.23;81.62
57412;BME280;43247;52.828;-8.980;2023-04-06T00:57:53;101436.05;;;10.22;81.70
57412;BME280;43247;52.828;-8.980;2023-04-06T00:58:53;101434.65;;;10.22;81.67
57412;BME280;43247;52.828;-8.980;2023-04-06T00:59:53;101435.23;;;10.22;81.67
57412;BME280;43247;52.828;-8.980;2023-04-06T01:00:53;101435.69;;;10.21;81.76
57412;BME280;43247;52.828;-8.980;2023-04-06T01:01:53;101435.49;;;10.21;81.66
57412;BME280;43247;52.828;-8.980;2023-04-06T01:02:54;101434.62;;;10.21;81.70
57412;BME280;43247;52.828;-8.980;2023-04-06T01:03:54;101435.35;;;10.20;81.66
57412;BME280;43247;52.828;-8.980;2023-04-06T01:04:54;101434.24;;;10.20;81.68
57412;BME280;43247;52.828;-8.980;2023-04-06T01:05:54;101433.71;;;10.18;81.69
57412;BME280;43247;52.828;-8.980;2023-04-06T01:06:54;101434.39;;;10.17;81.79
57412;BME280;43247;52.828;-8.980;2023-04-06T01:07:54;101433.32;;;10.16;81.74
57412;BME280;43247;52.828;-8.980;2023-04-06T01:08:55;101430.51;;;10.17;81.57
57412;BME280;43247;52.828;-8.980;2023-04-06T01:09:55;101427.11;;;10.16;81.34
57412;BME280;43247;52.828;-8.980;2023-04-06T01:10:55;101429.02;;;10.16;81.07
57412;BME280;43247;52.828;-8.980;2023-04-06T01:11:55;101428.84;;;10.17;81.12
57412;BME280;43247;52.828;-8.980;2023-04-06T01:12:55;101427.18;;;10.17;81.20
57412;BME280;43247;52.828;-8.980;2023-04-06T01:13:55;101425.88;;;10.17;81.20
57412;BME280;43247;52.828;-8.980;2023-04-06T01:14:56;101426.99;;;10.17;81.12
57412;BME280;43247;52.828;-8.980;2023-04-06T01:15:56;101426.38;;;10.16;81.06
57412;BME280;43247;52.828;-8.980;2023-04-06T01:16:58;101428.60;;;10.17;81.08
57412;BME280;43247;52.828;-8.980;2023-04-06T01:17:57;101429.42;;;10.17;81.31
57412;BME280;43247;52.828;-8.980;2023-04-06T01:18:57;101431.20;;;10.17;81.29
57412;BME280;43247;52.828;-8.980;2023-04-06T01:19:57;101430.00;;;10.16;81.12
57412;BME280;43247;52.828;-8.980;2023-04-06T01:20:57;101429.54;;;10.16;81.38
57412;BME280;43247;52.828;-8.980;2023-04-06T01:21:57;101429.37;;;10.17;81.37
57412;BME280;43247;52.828;-8.980;2023-04-06T01:22:57;101429.55;;;10.16;81.40
57412;BME280;43247;52.828;-8.980;2023-04-06T01:23:58;101429.47;;;10.16;81.17
57412;BME280;43247;52.828;-8.980;2023-04-06T01:24:58;101432.41;;;10.16;81.30
57412;BME280;43247;52.828;-8.980;2023-04-06T01:25:58;101434.58;;;10.16;81.24
57412;BME280;43247;52.828;-8.980;2023-04-06T01:26:58;101433.20;;;10.15;81.21
57412;BME280;43247;52.828;-8.980;2023-04-06T01:27:58;101434.39;;;10.15;81.32
57412;BME280;43247;52.828;-8.980;2023-04-06T01:28:59;101435.52;;;10.15;81.41
57412;BME280;43247;52.828;-8.980;2023-04-06T01:29:59;101435.31;;;10.15;81.43
57412;BME280;43247;52.828;-8.980;2023-04-06T01:30:59;101434.27;;;10.14;81.45
57412;BME280;43247;52.828;-8.980;2023-04-06T01:31:59;101434.73;;;10.14;81.46
57412;BME280;43247;52.828;-8.980;2023-04-06T01:32:59;101433.57;;;10.14;81.47
57412;BME280;43247;52.828;-8.980;2023-04-06T01:33:59;101430.20;;;10.14;81.44
57412;BME280;43247;52.828;-8.980;2023-04-06T01:35:00;101430.85;;;10.14;81.40
57412;BME280;43247;52.828;-8.980;2023-04-06T01:36:00;101431.33;;;10.14;81.55
57412;BME280;43247;52.828;-8.980;2023-04-06T01:37:00;101432.37;;;10.14;81.45
57412;BME280;43247;52.828;-8.980;2023-04-06T01:38:00;101431.93;;;10.14;81.54
57412;BME280;43247;52.828;-8.980;2023-04-06T01:39:00;101432.17;;;10.14;81.47
57412;BME280;43247;52.828;-8.980;2023-04-06T01:40:00;101433.64;;;10.15;81.49
57412;BME280;43247;52.828;-8.980;2023-04-06T01:41:01;101437.78;;;10.14;81.48
57412;BME280;43247;52.828;-8.980;2023-04-06T01:42:01;101434.84;;;10.14;81.41
57412;BME280;43247;52.828;-8.980;2023-04-06T01:43:01;101435.69;;;10.15;81.48
57412;BME280;43247;52.828;-8.980;2023-04-06T01:44:01;101438.68;;;10.14;81.53
57412;BME280;43247;52.828;-8.980;2023-04-06T01:45:01;101437.11;;;10.14;81.56
57412;BME280;43247;52.828;-8.980;2023-04-06T01:46:02;101435.57;;;10.11;81.25
57412;BME280;43247;52.828;-8.980;2023-04-06T01:47:02;101438.01;;;10.08;80.98
57412;BME280;43247;52.828;-8.980;2023-04-06T01:48:02;101436.51;;;10.06;80.69
57412;BME280;43247;52.828;-8.980;2023-04-06T01:49:02;101434.30;;;10.06;80.72
57412;BME280;43247;52.828;-8.980;2023-04-06T01:50:03;101434.22;;;10.06;80.74
57412;BME280;43247;52.828;-8.980;2023-04-06T01:51:04;101433.53;;;10.08;80.60
57412;BME280;43247;52.828;-8.980;2023-04-06T01:52:04;101432.20;;;10.09;80.52
57412;BME280;43247;52.828;-8.980;2023-04-06T01:53:04;101429.64;;;10.09;80.46
57412;BME280;43247;52.828;-8.980;2023-04-06T01:54:04;101429.35;;;10.08;80.77
57412;BME280;43247;52.828;-8.980;2023-04-06T01:55:04;101430.36;;;10.08;80.76
57412;BME280;43247;52.828;-8.980;2023-04-06T01:56:05;101430.70;;;10.10;80.44
57412;BME280;43247;52.828;-8.980;2023-04-06T01:57:04;101431.59;;;10.10;80.52
57412;BME280;43247;52.828;-8.980;2023-04-06T01:58:04;101430.49;;;10.10;80.62
57412;BME280;43247;52.828;-8.980;2023-04-06T01:59:05;101432.34;;;10.10;80.69
57412;BME280;43247;52.828;-8.980;2023-04-06T02:00:06;101432.60;;;10.11;80.77
57412;BME280;43247;52.828;-8.980;2023-04-06T02:01:05;101433.17;;;10.07;80.50
57412;BME280;43247;52.828;-8.980;2023-04-06T02:02:05;101435.41;;;10.06;80.54
57412;BME280;43247;52.828;-8.980;2023-04-06T02:03:05;101433.92;;;10.04;80.29
57412;BME280;43247;52.828;-8.980;2023-04-06T02:04:05;101434.86;;;10.03;80.28
57412;BME280;43247;52.828;-8.980;2023-04-06T02:05:07;101433.79;;;10.02;80.31
57412;BME280;43247;52.828;-8.980;2023-04-06T02:06:06;101433.75;;;10.02;80.43
57412;BME280;43247;52.828;-8.980;2023-04-06T02:07:06;101434.25;;;10.00;80.54
57412;BME280;43247;52.828;-8.980;2023-04-06T02:08:06;101435.96;;;10.00;80.59
57412;BME280;43247;52.828;-8.980;2023-04-06T02:09:06;101435.72;;;10.04;80.30
57412;BME280;43247;52.828;-8.980;2023-04-06T02:10:11;101437.20;;;10.00;80.52
57412;BME280;43247;52.828;-8.980;2023-04-06T02:11:07;101435.15;;;10.02;80.34
57412;BME280;43247;52.828;-8.980;2023-04-06T02:12:07;101432.34;;;10.06;80.47
57412;BME280;43247;52.828;-8.980;2023-04-06T02:13:07;101434.59;;;10.09;80.59
57412;BME280;43247;52.828;-8.980;2023-04-06T02:14:07;101434.37;;;10.09;80.55
57412;BME280;43247;52.828;-8.980;2023-04-06T02:15:08;101434.92;;;10.09;80.63
57412;BME280;43247;52.828;-8.980;2023-04-06T02:16:07;101435.62;;;10.09;80.78
57412;BME280;43247;52.828;-8.980;2023-04-06T02:17:08;101433.11;;;10.10;81.08
57412;BME280;43247;52.828;-8.980;2023-04-06T02:18:08;101430.78;;;10.10;81.05
57412;BME280;43247;52.828;-8.980;2023-04-06T02:19:08;101428.90;;;10.10;80.75
57412;BME280;43247;52.828;-8.980;2023-04-06T02:20:09;101428.15;;;10.09;80.80
57412;BME280;43247;52.828;-8.980;2023-04-06T02:21:08;101429.40;;;10.09;80.80
57412;BME280;43247;52.828;-8.980;2023-04-06T02:22:09;101431.26;;;10.08;80.85
57412;BME280;43247;52.828;-8.980;2023-04-06T02:23:09;101430.01;;;10.09;81.22
57412;BME280;43247;52.828;-8.980;2023-04-06T02:24:09;101432.63;;;10.09;81.05
57412;BME280;43247;52.828;-8.980;2023-04-06T02:25:09;101434.63;;;10.09;81.07
57412;BME280;43247;52.828;-8.980;2023-04-06T02:26:09;101433.48;;;10.09;81.28
57412;BME280;43247;52.828;-8.980;2023-04-06T02:27:09;101433.86;;;10.09;81.14
57412;BME280;43247;52.828;-8.980;2023-04-06T02:28:09;101436.00;;;10.09;81.34
57412;BME280;43247;52.828;-8.980;2023-04-06T02:29:10;101434.20;;;10.09;81.06
57412;BME280;43247;52.828;-8.980;2023-04-06T02:30:11;101436.92;;;10.09;81.26
57412;BME280;43247;52.828;-8.980;2023-04-06T02:31:10;101437.93;;;10.09;81.21
57412;BME280;43247;52.828;-8.980;2023-04-06T02:32:10;101440.87;;;10.10;81.36
57412;BME280;43247;52.828;-8.980;2023-04-06T02:33:10;101443.62;;;10.10;81.38
57412;BME280;43247;52.828;-8.980;2023-04-06T02:34:10;101447.02;;;10.11;81.54
57412;BME280;43247;52.828;-8.980;2023-04-06T02:35:11;101445.18;;;10.11;81.78
57412;BME280;43247;52.828;-8.980;2023-04-06T02:36:11;101446.34;;;10.11;81.56
57412;BME280;43247;52.828;-8.980;2023-04-06T02:37:11;101444.06;;;10.11;81.54
57412;BME280;43247;52.828;-8.980;2023-04-06T02:38:11;101446.13;;;10.11;81.65
57412;BME280;43247;52.828;-8.980;2023-04-06T02:39:11;101444.80;;;10.11;81.61
57412;BME280;43247;52.828;-8.980;2023-04-06T02:40:13;101443.38;;;10.12;81.79
57412;BME280;43247;52.828;-8.980;2023-04-06T02:41:12;101443.65;;;10.12;81.75
57412;BME280;43247;52.828;-8.980;2023-04-06T02:42:12;101443.40;;;10.12;81.74
57412;BME280;43247;52.828;-8.980;2023-04-06T02:43:12;101443.16;;;10.11;81.87
57412;BME280;43247;52.828;-8.980;2023-04-06T02:44:12;101444.29;;;10.11;81.76
57412;BME280;43247;52.828;-8.980;2023-04-06T02:45:13;101442.58;;;10.11;81.85
57412;BME280;43247;52.828;-8.980;2023-04-06T02:46:13;101441.72;;;10.11;81.96
57412;BME280;43247;52.828;-8.980;2023-04-06T02:47:13;101443.79;;;10.10;81.88
57412;BME280;43247;52.828;-8.980;2023-04-06T02:48:13;101443.45;;;10.10;81.92
57412;BME280;43247;52.828;-8.980;2023-04-06T02:49:13;101447.40;;;10.10;81.92
57412;BME280;43247;52.828;-8.980;2023-04-06T02:50:13;101451.41;;;10.10;81.95
57412;BME280;43247;52.828;-8.980;2023-04-06T02:51:13;101451.19;;;10.10;82.03
57412;BME280;43247;52.828;-8.980;2023-04-06T02:52:13;101450.54;;;10.10;82.08
57412;BME280;43247;52.828;-8.980;2023-04-06T02:53:14;101449.12;;;10.10;82.07
57412;BME280;43247;52.828;-8.980;2023-04-06T02:54:14;101444.94;;;10.10;82.06
57412;BME280;43247;52.828;-8.980;2023-04-06T02:55:14;101446.70;;;10.10;81.96
57412;BME280;43247;52.828;-8.980;2023-04-06T02:56:14;101448.66;;;10.10;81.99
57412;BME280;43247;52.828;-8.980;2023-04-06T02:57:14;101448.30;;;10.10;82.05
57412;BME280;43247;52.828;-8.980;2023-04-06T02:58:15;101446.90;;;10.10;82.13
57412;BME280;43247;52.828;-8.980;2023-04-06T02:59:15;101448.22;;;10.10;82.15
57412;BME280;43247;52.828;-8.980;2023-04-06T03:00:15;101446.93;;;10.09;82.11
57412;BME280;43247;52.828;-8.980;2023-04-06T03:01:15;101448.18;;;10.07;81.72
57412;BME280;43247;52.828;-8.980;2023-04-06T03:02:15;101448.18;;;10.04;81.49
57412;BME280;43247;52.828;-8.980;2023-04-06T03:03:15;101446.31;;;10.03;81.07
57412;BME280;43247;52.828;-8.980;2023-04-06T03:04:16;101444.00;;;10.00;81.06
57412;BME280;43247;52.828;-8.980;2023-04-06T03:05:16;101444.71;;;10.02;81.05
57412;BME280;43247;52.828;-8.980;2023-04-06T03:06:16;101442.14;;;10.03;81.11
57412;BME280;43247;52.828;-8.980;2023-04-06T03:07:16;101443.58;;;10.04;80.89
57412;BME280;43247;52.828;-8.980;2023-04-06T03:08:16;101442.13;;;10.04;80.93
57412;BME280;43247;52.828;-8.980;2023-04-06T03:09:16;101441.68;;;10.05;80.94
57412;BME280;43247;52.828;-8.980;2023-04-06T03:10:17;101444.51;;;10.06;80.99
57412;BME280;43247;52.828;-8.980;2023-04-06T03:11:17;101444.61;;;10.07;81.00
57412;BME280;43247;52.828;-8.980;2023-04-06T03:12:17;101444.52;;;10.06;80.92
57412;BME280;43247;52.828;-8.980;2023-04-06T03:13:17;101443.22;;;10.07;81.00
57412;BME280;43247;52.828;-8.980;2023-04-06T03:14:17;101441.29;;;10.08;81.02
57412;BME280;43247;52.828;-8.980;2023-04-06T03:15:17;101440.42;;;10.09;81.18
57412;BME280;43247;52.828;-8.980;2023-04-06T03:16:18;101441.00;;;10.09;81.18
57412;BME280;43247;52.828;-8.980;2023-04-06T03:17:18;101443.47;;;10.09;80.92
57412;BME280;43247;52.828;-8.980;2023-04-06T03:18:22;101440.99;;;10.09;80.72
57412;BME280;43247;52.828;-8.980;2023-04-06T03:19:18;101441.02;;;10.09;80.94
57412;BME280;43247;52.828;-8.980;2023-04-06T03:20:18;101442.94;;;10.09;81.09
57412;BME280;43247;52.828;-8.980;2023-04-06T03:21:18;101442.05;;;10.10;81.12
57412;BME280;43247;52.828;-8.980;2023-04-06T03:22:19;101440.90;;;10.10;81.10
57412;BME280;43247;52.828;-8.980;2023-04-06T03:23:19;101442.34;;;10.10;81.05
57412;BME280;43247;52.828;-8.980;2023-04-06T03:24:19;101443.29;;;10.09;80.69
57412;BME280;43247;52.828;-8.980;2023-04-06T03:25:19;101443.50;;;10.09;81.25
57412;BME280;43247;52.828;-8.980;2023-04-06T03:26:19;101441.55;;;10.09;80.94
57412;BME280;43247;52.828;-8.980;2023-04-06T03:27:19;101442.99;;;10.08;80.97
57412;BME280;43247;52.828;-8.980;2023-04-06T03:28:20;101443.14;;;10.08;80.82
57412;BME280;43247;52.828;-8.980;2023-04-06T03:29:20;101443.12;;;10.08;80.87
57412;BME280;43247;52.828;-8.980;2023-04-06T03:30:20;101441.81;;;10.08;80.85
57412;BME280;43247;52.828;-8.980;2023-04-06T03:31:20;101442.17;;;10.08;80.97
57412;BME280;43247;52.828;-8.980;2023-04-06T03:32:20;101441.72;;;10.07;81.10
57412;BME280;43247;52.828;-8.980;2023-04-06T03:33:20;101440.03;;;10.08;81.09
57412;BME280;43247;52.828;-8.980;2023-04-06T03:34:21;101437.87;;;10.07;81.07
57412;BME280;43247;52.828;-8.980;2023-04-06T03:35:21;101437.84;;;10.05;80.54
57412;BME280;43247;52.828;-8.980;2023-04-06T03:36:21;101436.04;;;10.00;80.25
57412;BME280;43247;52.828;-8.980;2023-04-06T03:37:21;101436.22;;;9.96;80.05
57412;BME280;43247;52.828;-8.980;2023-04-06T03:38:21;101439.47;;;9.94;79.94
57412;BME280;43247;52.828;-8.980;2023-04-06T03:39:21;101440.70;;;9.94;80.17
57412;BME280;43247;52.828;-8.980;2023-04-06T03:40:22;101441.86;;;9.97;79.95
57412;BME280;43247;52.828;-8.980;2023-04-06T03:41:22;101442.48;;;9.96;79.94
57412;BME280;43247;52.828;-8.980;2023-04-06T03:42:22;101443.08;;;9.96;80.02
57412;BME280;43247;52.828;-8.980;2023-04-06T03:43:22;101445.94;;;9.93;79.85
57412;BME280;43247;52.828;-8.980;2023-04-06T03:44:22;101445.75;;;9.88;80.10
57412;BME280;43247;52.828;-8.980;2023-04-06T03:45:23;101447.35;;;9.86;80.01
57412;BME280;43247;52.828;-8.980;2023-04-06T03:46:23;101446.26;;;9.87;79.93
57412;BME280;43247;52.828;-8.980;2023-04-06T03:47:23;101446.65;;;9.84;79.86
57412;BME280;43247;52.828;-8.980;2023-04-06T03:48:23;101446.48;;;9.88;79.86
57412;BME280;43247;52.828;-8.980;2023-04-06T03:49:23;101448.23;;;9.89;80.09
57412;BME280;43247;52.828;-8.980;2023-04-06T03:50:23;101449.00;;;9.89;79.87
57412;BME280;43247;52.828;-8.980;2023-04-06T03:51:24;101450.66;;;9.93;79.94
57412;BME280;43247;52.828;-8.980;2023-04-06T03:52:24;101449.83;;;9.95;79.97
57412;BME280;43247;52.828;-8.980;2023-04-06T03:53:24;101451.67;;;9.95;80.11
57412;BME280;43247;52.828;-8.980;2023-04-06T03:54:24;101452.08;;;9.96;80.10
57412;BME280;43247;52.828;-8.980;2023-04-06T03:55:24;101454.78;;;9.96;80.00
57412;BME280;43247;52.828;-8.980;2023-04-06T03:56:24;101453.60;;;9.94;80.03
57412;BME280;43247;52.828;-8.980;2023-04-06T03:57:25;101453.19;;;9.95;79.93
57412;BME280;43247;52.828;-8.980;2023-04-06T03:58:25;101451.89;;;9.95;80.08
57412;BME280;43247;52.828;-8.980;2023-04-06T03:59:25;101452.97;;;9.96;79.99
57412;BME280;43247;52.828;-8.980;2023-04-06T04:00:25;101455.64;;;9.96;80.32
57412;BME280;43247;52.828;-8.980;2023-04-06T04:01:25;101456.39;;;9.96;79.96
57412;BME280;43247;52.828;-8.980;2023-04-06T04:02:25;101456.66;;;9.93;80.06
57412;BME280;43247;52.828;-8.980;2023-04-06T04:03:26;101456.84;;;9.90;79.90
57412;BME280;43247;52.828;-8.980;2023-04-06T04:04:26;101457.09;;;9.85;79.87
57412;BME280;43247;52.828;-8.980;2023-04-06T04:05:26;101454.62;;;9.81;80.04
57412;BME280;43247;52.828;-8.980;2023-04-06T04:06:26;101457.57;;;9.85;80.00
57412;BME280;43247;52.828;-8.980;2023-04-06T04:07:26;101457.67;;;9.87;80.10
57412;BME280;43247;52.828;-8.980;2023-04-06T04:08:26;101461.99;;;9.86;79.96
57412;BME280;43247;52.828;-8.980;2023-04-06T04:09:27;101463.33;;;9.87;80.01
57412;BME280;43247;52.828;-8.980;2023-04-06T04:10:27;101464.11;;;9.86;80.05
57412;BME280;43247;52.828;-8.980;2023-04-06T04:11:27;101468.39;;;9.88;80.20
57412;BME280;43247;52.828;-8.980;2023-04-06T04:12:27;101471.56;;;9.94;79.98
57412;BME280;43247;52.828;-8.980;2023-04-06T04:13:27;101471.21;;;9.91;79.90
57412;BME280;43247;52.828;-8.980;2023-04-06T04:14:28;101471.16;;;9.92;80.06
57412;BME280;43247;52.828;-8.980;2023-04-06T04:15:28;101475.39;;;9.93;80.24
57412;BME280;43247;52.828;-8.980;2023-04-06T04:16:28;101476.74;;;9.94;80.01
57412;BME280;43247;52.828;-8.980;2023-04-06T04:17:28;101478.89;;;9.92;79.97
57412;BME280;43247;52.828;-8.980;2023-04-06T04:18:28;101481.59;;;9.91;79.81
57412;BME280;43247;52.828;-8.980;2023-04-06T04:19:28;101482.21;;;9.88;79.80
57412;BME280;43247;52.828;-8.980;2023-04-06T04:20:29;101483.94;;;9.87;79.84
57412;BME280;43247;52.828;-8.980;2023-04-06T04:21:30;101485.55;;;9.84;79.90
57412;BME280;43247;52.828;-8.980;2023-04-06T04:22:29;101485.74;;;9.83;80.00
57412;BME280;43247;52.828;-8.980;2023-04-06T04:23:29;101488.95;;;9.84;79.90
57412;BME280;43247;52.828;-8.980;2023-04-06T04:24:30;101491.94;;;9.82;79.97
57412;BME280;43247;52.828;-8.980;2023-04-06T04:25:30;101496.13;;;9.86;79.76
57412;BME280;43247;52.828;-8.980;2023-04-06T04:26:30;101494.78;;;9.86;79.88
57412;BME280;43247;52.828;-8.980;2023-04-06T04:27:30;101496.30;;;9.86;79.85
57412;BME280;43247;52.828;-8.980;2023-04-06T04:28:30;101495.35;;;9.86;79.67
57412;BME280;43247;52.828;-8.980;2023-04-06T04:29:31;101497.84;;;9.85;79.69
57412;BME280;43247;52.828;-8.980;2023-04-06T04:30:31;101496.88;;;9.86;79.83
57412;BME280;43247;52.828;-8.980;2023-04-06T04:31:31;101498.42;;;9.87;79.73
57412;BME280;43247;52.828;-8.980;2023-04-06T04:32:31;101498.57;;;9.90;79.83
57412;BME280;43247;52.828;-8.980;2023-04-06T04:33:31;101501.44;;;9.91;79.49
57412;BME280;43247;52.828;-8.980;2023-04-06T04:34:31;101502.56;;;9.89;79.69
57412;BME280;43247;52.828;-8.980;2023-04-06T04:35:32;101504.00;;;9.89;79.94
57412;BME280;43247;52.828;-8.980;2023-04-06T04:36:32;101503.11;;;9.90;80.01
57412;BME280;43247;52.828;-8.980;2023-04-06T04:37:32;101500.45;;;9.91;80.01
57412;BME280;43247;52.828;-8.980;2023-04-06T04:38:32;101502.64;;;9.90;80.20
57412;BME280;43247;52.828;-8.980;2023-04-06T04:39:32;101502.60;;;9.90;80.30
57412;BME280;43247;52.828;-8.980;2023-04-06T04:40:32;101503.40;;;9.89;80.43
57412;BME280;43247;52.828;-8.980;2023-04-06T04:41:33;101504.26;;;9.91;80.55
57412;BME280;43247;52.828;-8.980;2023-04-06T04:42:34;101498.16;;;9.92;80.75
57412;BME280;43247;52.828;-8.980;2023-04-06T04:43:33;101501.97;;;9.91;80.83
57412;BME280;43247;52.828;-8.980;2023-04-06T04:44:33;101504.35;;;9.92;80.82
57412;BME280;43247;52.828;-8.980;2023-04-06T04:45:33;101509.30;;;9.92;80.80
57412;BME280;43247;52.828;-8.980;2023-04-06T04:46:33;101510.21;;;9.92;80.68
57412;BME280;43247;52.828;-8.980;2023-04-06T04:47:34;101513.47;;;9.90;80.73
57412;BME280;43247;52.828;-8.980;2023-04-06T04:48:34;101515.59;;;9.89;80.84
57412;BME280;43247;52.828;-8.980;2023-04-06T04:49:34;101519.33;;;9.90;81.01
57412;BME280;43247;52.828;-8.980;2023-04-06T04:50:34;101522.63;;;9.90;80.93
57412;BME280;43247;52.828;-8.980;2023-04-06T04:51:34;101523.36;;;9.91;81.01
57412;BME280;43247;52.828;-8.980;2023-04-06T04:52:34;101526.63;;;9.91;81.24
57412;BME280;43247;52.828;-8.980;2023-04-06T04:53:35;101524.47;;;9.90;81.30
57412;BME280;43247;52.828;-8.980;2023-04-06T04:54:35;101527.19;;;9.90;81.21
57412;BME280;43247;52.828;-8.980;2023-04-06T04:55:35;101531.65;;;9.90;81.23
57412;BME280;43247;52.828;-8.980;2023-04-06T04:56:35;101530.55;;;9.89;81.27
57412;BME280;43247;52.828;-8.980;2023-04-06T04:57:35;101535.08;;;9.88;81.29
57412;BME280;43247;52.828;-8.980;2023-04-06T04:58:35;101534.34;;;9.88;81.36
57412;BME280;43247;52.828;-8.980;2023-04-06T04:59:36;101536.89;;;9.87;81.42
57412;BME280;43247;52.828;-8.980;2023-04-06T05:00:36;101537.79;;;9.87;81.43
57412;BME280;43247;52.828;-8.980;2023-04-06T05:01:36;101536.05;;;9.86;81.57
57412;BME280;43247;52.828;-8.980;2023-04-06T05:02:36;101537.02;;;9.86;81.57
57412;BME280;43247;52.828;-8.980;2023-04-06T05:03:37;101536.59;;;9.86;81.60
57412;BME280;43247;52.828;-8.980;2023-04-06T05:04:37;101537.46;;;9.85;81.64
57412;BME280;43247;52.828;-8.980;2023-04-06T05:05:37;101538.81;;;9.85;81.64
57412;BME280;43247;52.828;-8.980;2023-04-06T05:06:37;101538.81;;;9.84;81.70
57412;BME280;43247;52.828;-8.980;2023-04-06T05:07:37;101537.18;;;9.84;81.57
57412;BME280;43247;52.828;-8.980;2023-04-06T05:08:37;101537.76;;;9.83;81.61
57412;BME280;43247;52.828;-8.980;2023-04-06T05:09:38;101537.68;;;9.83;81.51
57412;BME280;43247;52.828;-8.980;2023-04-06T05:10:38;101538.41;;;9.82;81.49
57412;BME280;43247;52.828;-8.980;2023-04-06T05:11:38;101541.37;;;9.82;81.44